createdAt,value
2023-04-27T00:01:45.973Z,953.2770996
2023-04-27T00:01:48.654Z,953.2949829
2023-04-27T00:03:18.468Z,953.2614746
2023-04-27T00:04:19.967Z,953.328125
2023-04-27T00:05:21.313Z,953.3233032
2023-04-27T00:06:22.768Z,953.3372803
2023-04-27T00:07:24.452Z,953.3174438
2023-04-27T00:08:26.329Z,953.3372803
2023-04-27T00:09:28.300Z,953.3557739
2023-04-27T00:10:29.863Z,953.390564
2023-04-27T00:11:31.790Z,953.3200073
2023-04-27T00:12:33.301Z,953.3375244
2023-04-27T00:13:35.405Z,953.3342285
2023-04-27T00:14:37.328Z,953.3440552
2023-04-27T00:15:39.455Z,953.3401489
2023-04-27T00:16:41.537Z,953.3362427
2023-04-27T00:17:43.361Z,953.3082886
2023-04-27T00:18:46.254Z,953.276123
2023-04-27T00:20:18.848Z,953.3070068
2023-04-27T00:21:20.773Z,953.2972412
2023-04-27T00:22:22.315Z,953.2820435
2023-04-27T00:23:23.897Z,953.3070068
2023-04-27T00:24:25.913Z,953.2647095
2023-04-27T00:25:27.854Z,953.3272095
2023-04-27T00:26:29.397Z,953.3206177
2023-04-27T00:27:31.347Z,953.303772
2023-04-27T00:28:33.320Z,953.2712402
2023-04-27T00:29:34.824Z,953.2848511
2023-04-27T00:30:36.525Z,953.2484131
2023-04-27T00:31:38.400Z,953.2679443
2023-04-27T00:32:40.356Z,953.2637329
2023-04-27T00:33:41.882Z,953.2747803
2023-04-27T00:34:43.821Z,953.2893677
2023-04-27T00:35:45.309Z,953.2424927
2023-04-27T00:36:47.287Z,953.2931519
2023-04-27T00:38:19.760Z,953.3024902
2023-04-27T00:39:21.285Z,953.3226318
2023-04-27T00:40:22.800Z,953.3453369
2023-04-27T00:41:24.275Z,953.3336182
2023-04-27T00:42:25.677Z,953.3345947
2023-04-27T00:43:27.186Z,953.3140869
2023-04-27T00:44:28.810Z,953.3546753
2023-04-27T00:45:30.162Z,953.3410645
2023-04-27T00:46:31.707Z,953.2977905
2023-04-27T00:47:33.831Z,953.3488159
2023-04-27T00:48:35.339Z,953.3406982
2023-04-27T00:49:36.348Z,953.3078003
2023-04-27T00:50:38.338Z,953.3099976
2023-04-27T00:51:39.866Z,953.2927856
2023-04-27T00:52:41.826Z,953.2982788
2023-04-27T00:53:43.360Z,953.3347168
2023-04-27T00:54:45.271Z,953.3049927
2023-04-27T00:56:17.807Z,953.3287354
2023-04-27T00:57:19.288Z,953.3498535
2023-04-27T00:58:20.829Z,953.34729
2023-04-27T00:59:22.305Z,953.3359375
2023-04-27T01:00:23.765Z,953.3554077
2023-04-27T01:01:25.309Z,953.3401489
2023-04-27T01:02:26.913Z,953.3197021
2023-04-27T01:03:28.451Z,953.3277588
2023-04-27T01:04:29.319Z,953.31604
2023-04-27T01:05:32.503Z,953.3387451
2023-04-27T01:06:32.281Z,953.3253174
2023-04-27T01:07:34.286Z,953.3112793
2023-04-27T01:08:35.910Z,953.345459
2023-04-27T01:09:37.704Z,953.328125
2023-04-27T01:10:39.372Z,953.3222656
2023-04-27T01:11:41.218Z,953.3414307
2023-04-27T01:12:42.763Z,953.3621826
2023-04-27T01:13:44.809Z,953.369873
2023-04-27T01:14:46.820Z,953.3612671
2023-04-27T01:16:19.389Z,953.4202881
2023-04-27T01:17:20.757Z,953.3754883
2023-04-27T01:18:21.840Z,953.4232788
2023-04-27T01:19:23.251Z,953.4043579
2023-04-27T01:20:25.118Z,953.4459229
2023-04-27T01:21:26.799Z,953.4456177
2023-04-27T01:22:28.745Z,953.4335938
2023-04-27T01:23:30.235Z,953.4449463
2023-04-27T01:24:31.762Z,953.4367676
2023-04-27T01:25:33.278Z,953.4481201
2023-04-27T01:26:34.799Z,953.4449463
2023-04-27T01:27:36.299Z,953.4417114
2023-04-27T01:28:37.759Z,953.4651489
2023-04-27T01:29:39.368Z,953.4709473
2023-04-27T01:30:41.299Z,953.4882202
2023-04-27T01:31:43.354Z,953.4907837
2023-04-27T01:32:44.317Z,953.4502563
2023-04-27T01:33:46.188Z,953.4577637
2023-04-27T01:35:18.780Z,953.4382935
2023-04-27T01:36:20.330Z,953.4295044
2023-04-27T01:37:21.747Z,953.4832153
2023-04-27T01:38:23.253Z,953.4896851
2023-04-27T01:39:24.753Z,953.4923706
2023-04-27T01:40:26.337Z,953.5198975
2023-04-27T01:41:28.381Z,953.5101318
2023-04-27T01:42:30.310Z,953.5040894
2023-04-27T01:43:31.684Z,953.5209351
2023-04-27T01:44:33.327Z,953.4481812
2023-04-27T01:45:34.857Z,953.4564209
2023-04-27T01:46:36.870Z,953.5067749
2023-04-27T01:47:38.335Z,953.4882813
2023-04-27T01:48:39.794Z,953.5055542
2023-04-27T01:49:40.642Z,953.5162354
2023-04-27T01:50:42.314Z,953.5488281
2023-04-27T01:51:44.304Z,953.552124
2023-04-27T01:52:46.293Z,953.4938965
2023-04-27T01:54:18.270Z,953.522522
2023-04-27T01:55:19.878Z,953.4988403
2023-04-27T01:56:21.836Z,953.4998169
2023-04-27T01:57:22.784Z,953.4754639
2023-04-27T01:58:24.232Z,953.475769
2023-04-27T01:59:25.760Z,953.5133057
2023-04-27T02:00:27.328Z,953.4489136
2023-04-27T02:01:28.876Z,953.4796753
2023-04-27T02:02:30.453Z,953.4465332
2023-04-27T02:03:31.898Z,953.4660645
2023-04-27T02:04:33.487Z,953.4628906
2023-04-27T02:05:34.907Z,953.4693604
2023-04-27T02:06:35.800Z,953.4476318
2023-04-27T02:07:37.277Z,953.4470215
2023-04-27T02:08:38.872Z,953.4103394
2023-04-27T02:09:40.768Z,953.4226685
2023-04-27T02:10:42.445Z,953.434082
2023-04-27T02:11:44.372Z,953.4279175
2023-04-27T02:13:17.279Z,953.4399414
2023-04-27T02:14:18.793Z,953.4083862
2023-04-27T02:15:20.288Z,953.4578247
2023-04-27T02:16:21.867Z,953.4084473
2023-04-27T02:17:23.859Z,953.4436035
2023-04-27T02:18:25.692Z,953.4266968
2023-04-27T02:19:27.220Z,953.4054565
2023-04-27T02:20:28.852Z,953.3671875
2023-04-27T02:21:30.900Z,953.3605957
2023-04-27T02:22:32.320Z,953.3687744
2023-04-27T02:23:33.805Z,953.3314209
2023-04-27T02:24:35.284Z,953.3518677
2023-04-27T02:25:36.837Z,953.3817749
2023-04-27T02:26:38.392Z,953.3535767
2023-04-27T02:27:40.310Z,953.3584595
2023-04-27T02:28:42.203Z,953.3980713
2023-04-27T02:29:44.182Z,953.3596802
2023-04-27T02:31:17.368Z,953.3693848
2023-04-27T02:32:18.830Z,953.3563843
2023-04-27T02:33:20.297Z,953.3267212
2023-04-27T02:34:22.340Z,953.3722534
2023-04-27T02:35:23.232Z,953.3582764
2023-04-27T02:36:24.831Z,953.3615112
2023-04-27T02:37:26.900Z,953.3484497
2023-04-27T02:38:28.769Z,953.3676758
2023-04-27T02:39:30.307Z,953.361084
2023-04-27T02:40:31.737Z,953.3675537
2023-04-27T02:41:33.407Z,953.3490601
2023-04-27T02:42:35.465Z,953.298645
2023-04-27T02:43:37.284Z,953.3636475
2023-04-27T02:44:38.796Z,953.3568115
2023-04-27T02:45:40.403Z,953.395752
2023-04-27T02:46:42.397Z,953.397522
2023-04-27T02:47:45.869Z,953.4126587
2023-04-27T02:49:20.188Z,953.3961182
2023-04-27T02:50:22.961Z,953.4064331
2023-04-27T02:51:25.739Z,953.3793945
2023-04-27T02:52:30.482Z,953.4020996
2023-04-27T02:53:35.475Z,953.4118652
2023-04-27T02:54:37.719Z,953.3972778
2023-04-27T02:55:40.293Z,953.4346313
2023-04-27T02:56:43.254Z,953.3978271
2023-04-27T02:57:46.828Z,953.4157104
2023-04-27T02:59:21.042Z,953.4381104
2023-04-27T03:00:23.710Z,953.4575806
2023-04-27T03:01:25.597Z,953.456543
2023-04-27T03:02:27.402Z,953.4295044
2023-04-27T03:03:29.498Z,953.449707
2023-04-27T03:04:30.748Z,953.4740601
2023-04-27T03:05:32.234Z,953.4691162
2023-04-27T03:06:33.954Z,953.4779053
2023-04-27T03:07:35.802Z,953.5200806
2023-04-27T03:08:37.350Z,953.5175171
2023-04-27T03:09:38.751Z,953.4959106
2023-04-27T03:10:40.502Z,953.5293579
2023-04-27T03:11:42.343Z,953.4845581
2023-04-27T03:12:44.321Z,953.4679565
2023-04-27T03:13:46.316Z,953.491272
2023-04-27T03:15:18.187Z,953.5152588
2023-04-27T03:16:19.992Z,953.5239258
2023-04-27T03:17:21.898Z,953.5131226
2023-04-27T03:18:23.317Z,953.5543823
2023-04-27T03:19:24.776Z,953.597168
2023-04-27T03:20:26.188Z,953.5653076
2023-04-27T03:21:27.861Z,953.5918579
2023-04-27T03:22:29.444Z,953.5881348
2023-04-27T03:23:31.381Z,953.6066895
2023-04-27T03:24:33.250Z,953.6121826
2023-04-27T03:25:34.755Z,953.6218872
2023-04-27T03:26:36.257Z,953.6192017
2023-04-27T03:27:37.859Z,953.6213989
2023-04-27T03:28:39.873Z,953.6606445
2023-04-27T03:29:41.821Z,953.6411133
2023-04-27T03:30:44.075Z,953.6578979
2023-04-27T03:32:17.302Z,953.6331177
2023-04-27T03:33:18.850Z,953.6486206
2023-04-27T03:34:20.822Z,953.6378174
2023-04-27T03:35:21.817Z,953.640625
2023-04-27T03:36:23.333Z,953.6811523
2023-04-27T03:37:24.827Z,953.6645508
2023-04-27T03:38:26.325Z,953.6846313
2023-04-27T03:39:28.394Z,953.6942749
2023-04-27T03:40:30.340Z,953.710144
2023-04-27T03:41:31.809Z,953.7011108
2023-04-27T03:42:33.404Z,953.706543
2023-04-27T03:43:35.434Z,953.7090454
2023-04-27T03:44:37.286Z,953.7265625
2023-04-27T03:45:38.818Z,953.72229
2023-04-27T03:46:40.259Z,953.7196045
2023-04-27T03:47:41.438Z,953.7023315
2023-04-27T03:48:42.461Z,953.7379761
2023-04-27T03:49:44.264Z,953.6911011
2023-04-27T03:51:16.984Z,953.7231445
2023-04-27T03:52:19.074Z,953.7349854
2023-04-27T03:53:20.782Z,953.7384644
2023-04-27T03:54:23.137Z,953.7703857
2023-04-27T03:55:25.353Z,953.7715454
2023-04-27T03:56:27.580Z,953.7623291
2023-04-27T03:57:29.475Z,953.7456055
2023-04-27T03:58:31.802Z,953.7175293
2023-04-27T03:59:34.139Z,953.6878662
2023-04-27T04:00:35.820Z,953.736084
2023-04-27T04:01:37.421Z,953.7714233
2023-04-27T04:02:38.999Z,953.8059082
2023-04-27T04:03:40.915Z,953.7518921
2023-04-27T04:04:42.614Z,953.7407837
2023-04-27T04:05:44.648Z,953.758606
2023-04-27T04:07:17.271Z,953.7522583
2023-04-27T04:08:18.871Z,953.7268066
2023-04-27T04:09:22.716Z,953.7701416
2023-04-27T04:10:22.856Z,953.7966309
2023-04-27T04:11:24.250Z,953.7913818
2023-04-27T04:12:26.866Z,953.7945557
2023-04-27T04:13:29.399Z,953.8112793
2023-04-27T04:14:30.365Z,953.7874756
2023-04-27T04:15:32.308Z,953.7913818
2023-04-27T04:16:33.739Z,953.8238525
2023-04-27T04:17:35.348Z,953.7718506
2023-04-27T04:18:36.852Z,953.7854614
2023-04-27T04:19:37.859Z,953.772522
2023-04-27T04:20:39.732Z,953.8091431
2023-04-27T04:21:41.305Z,953.8032837
2023-04-27T04:22:42.936Z,953.7990723
2023-04-27T04:23:44.921Z,953.8226318
2023-04-27T04:25:17.421Z,953.8027954
2023-04-27T04:26:19.324Z,953.7865601
2023-04-27T04:27:20.951Z,953.8357544
2023-04-27T04:28:22.928Z,953.7980347
2023-04-27T04:29:24.926Z,953.8135986
2023-04-27T04:30:26.819Z,953.7816162
2023-04-27T04:31:28.316Z,953.8186035
2023-04-27T04:32:29.884Z,953.8434448
2023-04-27T04:33:31.438Z,953.8300781
2023-04-27T04:34:33.409Z,953.831543
2023-04-27T04:35:35.278Z,953.7840576
2023-04-27T04:36:36.211Z,953.798584
2023-04-27T04:37:37.796Z,953.7824707
2023-04-27T04:38:39.443Z,953.8099976
2023-04-27T04:39:41.418Z,953.8387451
2023-04-27T04:40:45.860Z,953.8706055
2023-04-27T04:42:16.316Z,953.835022
2023-04-27T04:43:17.919Z,953.8673706
2023-04-27T04:44:19.979Z,953.8112793
2023-04-27T04:45:21.823Z,953.8397827
2023-04-27T04:46:23.307Z,953.8095093
2023-04-27T04:47:25.325Z,953.8571777
2023-04-27T04:48:27.474Z,953.8311157
2023-04-27T04:49:29.520Z,953.8230591
2023-04-27T04:50:31.352Z,953.8291626
2023-04-27T04:51:32.776Z,953.8464355
2023-04-27T04:52:34.273Z,953.8527832
2023-04-27T04:53:35.927Z,953.8200073
2023-04-27T04:54:37.986Z,953.84198
2023-04-27T04:55:39.836Z,953.8587646
2023-04-27T04:56:41.780Z,953.8740845
2023-04-27T04:57:43.318Z,953.8549805
2023-04-27T04:59:16.893Z,953.8798218
2023-04-27T05:00:18.878Z,953.8972168
2023-04-27T05:01:20.873Z,953.9124146
2023-04-27T05:02:22.950Z,953.9476318
2023-04-27T05:03:24.561Z,953.9338989
2023-04-27T05:04:26.004Z,953.9497681
2023-04-27T05:05:27.356Z,953.890686
2023-04-27T05:06:28.891Z,953.90271
2023-04-27T05:07:30.831Z,953.9188843
2023-04-27T05:08:32.662Z,953.9400024
2023-04-27T05:09:34.500Z,953.9501343
2023-04-27T05:10:36.425Z,953.9859619
2023-04-27T05:11:38.219Z,953.9957275
2023-04-27T05:12:39.798Z,953.9901733
2023-04-27T05:13:41.385Z,953.9821167
2023-04-27T05:14:43.407Z,953.9788818
2023-04-27T05:16:16.887Z,954.0264282
2023-04-27T05:17:18.420Z,954.0280762
2023-04-27T05:18:19.865Z,954.0314331
2023-04-27T05:19:21.852Z,954.0772095
2023-04-27T05:20:23.339Z,954.0518799
2023-04-27T05:21:24.720Z,954.0577393
2023-04-27T05:22:26.254Z,954.0772705
2023-04-27T05:23:27.720Z,954.065918
2023-04-27T05:24:29.226Z,954.0686646
2023-04-27T05:25:30.814Z,954.1063843
2023-04-27T05:26:32.445Z,954.0847778
2023-04-27T05:27:34.256Z,954.0761719
2023-04-27T05:28:35.818Z,954.0870361
2023-04-27T05:29:37.250Z,954.0999146
2023-04-27T05:30:38.800Z,954.0808716
2023-04-27T05:31:40.464Z,954.0767212
2023-04-27T05:32:41.826Z,954.112793
2023-04-27T05:33:43.194Z,954.1112671
2023-04-27T05:35:15.862Z,954.1095581
2023-04-27T05:36:16.769Z,954.1176758
2023-04-27T05:37:18.294Z,954.1143799
2023-04-27T05:38:19.677Z,954.1134644
2023-04-27T05:39:21.310Z,954.0998535
2023-04-27T05:40:22.961Z,954.1068726
2023-04-27T05:41:24.807Z,954.0881348
2023-04-27T05:42:26.384Z,954.1716919
2023-04-27T05:43:27.790Z,954.1496582
2023-04-27T05:44:29.392Z,954.1400146
2023-04-27T05:45:31.407Z,954.1734619
2023-04-27T05:46:32.936Z,954.1665039
2023-04-27T05:47:35.326Z,954.1610718
2023-04-27T05:48:36.795Z,954.1900024
2023-04-27T05:49:38.284Z,954.1777954
2023-04-27T05:50:39.887Z,954.194519
2023-04-27T05:51:41.892Z,954.2123413
2023-04-27T05:53:15.390Z,954.211853
2023-04-27T05:54:16.792Z,954.2642212
2023-04-27T05:55:18.225Z,954.2435913
2023-04-27T05:56:19.773Z,954.2382813
2023-04-27T05:57:21.304Z,954.250061
2023-04-27T05:58:22.754Z,954.2661133
2023-04-27T05:59:24.227Z,954.2163086
2023-04-27T06:00:25.795Z,954.2911987
2023-04-27T06:01:27.394Z,954.2591553
2023-04-27T06:02:28.961Z,954.2476807
2023-04-27T06:03:30.497Z,954.3016968
2023-04-27T06:04:31.841Z,954.2775269
2023-04-27T06:05:33.521Z,954.2893066
2023-04-27T06:06:34.891Z,954.2887573
2023-04-27T06:07:37.704Z,954.3152466
2023-04-27T06:08:39.655Z,954.3504639
2023-04-27T06:09:41.389Z,954.3790894
2023-04-27T06:10:42.839Z,954.3708496
2023-04-27T06:12:16.346Z,954.3551636
2023-04-27T06:13:18.344Z,954.336731
2023-04-27T06:14:19.907Z,954.3339844
2023-04-27T06:15:21.343Z,954.3376465
2023-04-27T06:16:22.901Z,954.3722534
2023-04-27T06:17:24.330Z,954.3499756
2023-04-27T06:18:25.784Z,954.3546753
2023-04-27T06:19:27.350Z,954.369873
2023-04-27T06:20:28.793Z,954.4093628
2023-04-27T06:21:30.284Z,954.427124
2023-04-27T06:22:31.854Z,954.4064331
2023-04-27T06:23:33.374Z,954.4004517
2023-04-27T06:24:34.838Z,954.4539185
2023-04-27T06:25:36.204Z,954.4134521
2023-04-27T06:26:37.704Z,954.4353027
2023-04-27T06:27:39.444Z,954.4299927
2023-04-27T06:28:41.231Z,954.4359131
2023-04-27T06:29:43.319Z,954.4106445
2023-04-27T06:31:15.840Z,954.3873291
2023-04-27T06:32:17.187Z,954.3822632
2023-04-27T06:33:18.778Z,954.3762207
2023-04-27T06:34:20.280Z,954.4206543
2023-04-27T06:35:21.780Z,954.4226685
2023-04-27T06:36:23.336Z,954.4659424
2023-04-27T06:37:24.954Z,954.4475098
2023-04-27T06:38:26.327Z,954.4717407
2023-04-27T06:39:27.746Z,954.4734497
2023-04-27T06:40:29.393Z,954.4804077
2023-04-27T06:41:31.283Z,954.4515381
2023-04-27T06:42:32.737Z,954.4665527
2023-04-27T06:43:34.324Z,954.4612427
2023-04-27T06:44:35.836Z,954.4519043
2023-04-27T06:45:37.338Z,954.4593506
2023-04-27T06:46:39.092Z,954.4230347
2023-04-27T06:47:40.320Z,954.428894
2023-04-27T06:48:41.770Z,954.4726563
2023-04-27T06:50:14.392Z,954.4612427
2023-04-27T06:51:15.841Z,954.4922485
2023-04-27T06:52:17.322Z,954.4494019
2023-04-27T06:53:18.771Z,954.4715576
2023-04-27T06:54:20.280Z,954.4356079
2023-04-27T06:55:21.863Z,954.4749756
2023-04-27T06:56:23.299Z,954.4526367
2023-04-27T06:57:24.740Z,954.4208374
2023-04-27T06:58:26.257Z,954.4629517
2023-04-27T06:59:27.797Z,954.4536133
2023-04-27T07:00:29.240Z,954.4823608
2023-04-27T07:01:30.844Z,954.4799805
2023-04-27T07:02:32.346Z,954.4859619
2023-04-27T07:03:33.891Z,954.5097656
2023-04-27T07:04:35.350Z,954.4929199
2023-04-27T07:05:36.788Z,954.4760742
2023-04-27T07:06:38.297Z,954.5122681
2023-04-27T07:07:39.805Z,954.4703979
2023-04-27T07:08:41.250Z,954.4962769
2023-04-27T07:10:14.298Z,954.4729004
2023-04-27T07:11:15.806Z,954.4820557
2023-04-27T07:12:17.350Z,954.4450073
2023-04-27T07:13:18.825Z,954.3826294
2023-04-27T07:14:20.300Z,954.3977051
2023-04-27T07:15:21.814Z,954.3746948
2023-04-27T07:16:23.353Z,954.3909912
2023-04-27T07:17:25.358Z,954.378418
2023-04-27T07:18:26.803Z,954.343689
2023-04-27T07:19:28.303Z,954.3495483
2023-04-27T07:20:29.806Z,954.3851318
2023-04-27T07:21:31.377Z,954.3496704
2023-04-27T07:22:32.756Z,954.3492432
2023-04-27T07:23:34.227Z,954.3609619
2023-04-27T07:24:35.799Z,954.364624
2023-04-27T07:25:37.300Z,954.2982788
2023-04-27T07:26:38.812Z,954.315918
2023-04-27T07:27:40.353Z,954.3023682
2023-04-27T07:28:41.796Z,954.281311
2023-04-27T07:30:14.861Z,954.3390503
2023-04-27T07:31:15.743Z,954.3052368
2023-04-27T07:32:16.712Z,954.3007813
2023-04-27T07:33:18.387Z,954.2971802
2023-04-27T07:34:20.376Z,954.3659668
2023-04-27T07:35:21.811Z,954.3078003
2023-04-27T07:36:23.246Z,954.3247681
2023-04-27T07:37:24.793Z,954.3404541
2023-04-27T07:38:26.304Z,954.2767334
2023-04-27T07:39:27.750Z,954.2324829
2023-04-27T07:40:29.304Z,954.2016602
2023-04-27T07:41:30.753Z,954.2198486
2023-04-27T07:42:32.299Z,954.1968994
2023-04-27T07:43:33.840Z,954.2157593
2023-04-27T07:44:35.317Z,954.1851807
2023-04-27T07:45:36.871Z,954.2027588
2023-04-27T07:46:38.284Z,954.1727905
2023-04-27T07:47:39.846Z,954.2132568
2023-04-27T07:48:41.486Z,954.1999512
2023-04-27T07:50:13.829Z,954.1741943
2023-04-27T07:51:15.346Z,954.1609497
2023-04-27T07:52:16.945Z,954.1612549
2023-04-27T07:53:18.853Z,954.1567383
2023-04-27T07:54:20.433Z,954.1603394
2023-04-27T07:55:21.976Z,954.09552
2023-04-27T07:56:23.851Z,954.1137695
2023-04-27T07:57:25.297Z,954.1027222
2023-04-27T07:58:26.824Z,954.0681763
2023-04-27T07:59:28.269Z,954.0686035
2023-04-27T08:00:29.783Z,954.0861816
2023-04-27T08:01:31.331Z,954.0668945
2023-04-27T08:02:32.551Z,954.0770264
2023-04-27T08:03:34.202Z,954.0545044
2023-04-27T08:04:35.723Z,954.0614014
2023-04-27T08:05:37.053Z,954.0600586
2023-04-27T08:06:39.047Z,954.0734253
2023-04-27T08:07:44.593Z,954.0744019
2023-04-27T08:08:42.262Z,954.0685425
2023-04-27T08:10:15.309Z,954.0812378
2023-04-27T08:11:16.826Z,954.0658569
2023-04-27T08:12:18.486Z,954.0753174
2023-04-27T08:13:20.272Z,954.1052856
2023-04-27T08:14:22.648Z,954.0540771
2023-04-27T08:15:24.268Z,954.0983887
2023-04-27T08:16:25.869Z,954.053772
2023-04-27T08:17:27.254Z,954.0598145
2023-04-27T08:18:28.082Z,954.0240479
2023-04-27T08:19:28.919Z,954.086853
2023-04-27T08:20:30.815Z,954.0741577
2023-04-27T08:21:32.204Z,954.0848999
2023-04-27T08:22:33.741Z,954.0373535
2023-04-27T08:23:35.211Z,954.0756836
2023-04-27T08:24:36.724Z,954.1473389
2023-04-27T08:25:38.228Z,954.0776367
2023-04-27T08:26:39.911Z,954.1056519
2023-04-27T08:27:42.183Z,954.107605
2023-04-27T08:29:26.341Z,954.1411133
2023-04-27T08:30:16.829Z,954.149231
2023-04-27T08:31:17.678Z,954.1625977
2023-04-27T08:32:19.193Z,954.1241455
2023-04-27T08:33:20.758Z,954.1188965
2023-04-27T08:34:22.208Z,954.1018677
2023-04-27T08:35:23.805Z,954.1328125
2023-04-27T08:36:25.213Z,954.0761108
2023-04-27T08:37:27.349Z,954.0704956
2023-04-27T08:38:28.775Z,954.1001587
2023-04-27T08:39:30.316Z,954.1151733
2023-04-27T08:40:31.797Z,954.1228638
2023-04-27T08:41:33.212Z,954.1498413
2023-04-27T08:42:34.728Z,954.1087646
2023-04-27T08:43:36.805Z,954.0878296
2023-04-27T08:44:37.676Z,954.0870972
2023-04-27T08:45:38.558Z,954.0890503
2023-04-27T08:46:39.486Z,954.0706787
2023-04-27T08:47:43.909Z,954.0571899
2023-04-27T08:49:15.152Z,954.0427856
2023-04-27T08:50:14.794Z,954.0202637
2023-04-27T08:51:15.748Z,954.0563965
2023-04-27T08:52:16.548Z,954.0384521
2023-04-27T08:53:17.434Z,954.0044556
2023-04-27T08:54:19.266Z,953.9962769
2023-04-27T08:55:20.802Z,954.0200195
2023-04-27T08:56:22.275Z,953.99646
2023-04-27T08:57:24.013Z,953.9935303
2023-04-27T08:58:25.847Z,953.9765015
2023-04-27T08:59:27.785Z,953.9481201
2023-04-27T09:00:29.408Z,953.9417725
2023-04-27T09:01:31.398Z,953.8908081
2023-04-27T09:02:32.954Z,953.9145508
2023-04-27T09:03:34.436Z,953.8602905
2023-04-27T09:04:35.998Z,953.8343506
2023-04-27T09:05:37.290Z,953.8395386
2023-04-27T09:06:38.841Z,953.8674927
2023-04-27T09:07:40.386Z,953.8398438
2023-04-27T09:09:14.007Z,953.835144
2023-04-27T09:10:15.414Z,953.8696899
2023-04-27T09:11:16.809Z,953.845459
2023-04-27T09:12:18.364Z,953.8554688
2023-04-27T09:13:19.783Z,953.840332
2023-04-27T09:14:21.284Z,953.8052979
2023-04-27T09:15:22.847Z,953.8423462
2023-04-27T09:16:24.398Z,953.8295288
2023-04-27T09:17:25.893Z,953.8278198
2023-04-27T09:18:27.348Z,953.8199463
2023-04-27T09:19:28.848Z,953.8103638
2023-04-27T09:20:30.229Z,953.8608398
2023-04-27T09:21:31.768Z,953.8170166
2023-04-27T09:22:33.405Z,953.8189087
2023-04-27T09:23:34.872Z,953.7970581
2023-04-27T09:24:36.874Z,953.8054199
2023-04-27T09:25:38.332Z,953.7957764
2023-04-27T09:26:39.893Z,953.7240601
2023-04-27T09:28:13.762Z,953.7562256
2023-04-27T09:29:15.624Z,953.7384644
2023-04-27T09:30:17.412Z,953.7199707
2023-04-27T09:31:19.360Z,953.7038574
2023-04-27T09:32:20.975Z,953.7210693
2023-04-27T09:33:22.467Z,953.7492676
2023-04-27T09:34:24.466Z,953.7362671
2023-04-27T09:35:26.392Z,953.7879639
2023-04-27T09:36:27.782Z,953.8120117
2023-04-27T09:37:29.306Z,953.762207
2023-04-27T09:38:30.989Z,953.7827148
2023-04-27T09:39:32.851Z,953.8064575
2023-04-27T09:40:34.293Z,953.7887573
2023-04-27T09:41:35.752Z,953.7423706
2023-04-27T09:42:37.330Z,953.7619629
2023-04-27T09:43:38.841Z,953.7824707
2023-04-27T09:44:40.514Z,953.7932129
2023-04-27T09:46:12.739Z,953.803894
2023-04-27T09:47:14.423Z,953.7758789
2023-04-27T09:48:16.302Z,953.7832642
2023-04-27T09:49:17.831Z,953.774353
2023-04-27T09:50:19.441Z,953.7547607
2023-04-27T09:51:21.239Z,953.7890625
2023-04-27T09:52:22.848Z,953.7828369
2023-04-27T09:53:23.783Z,953.7990723
2023-04-27T09:54:24.781Z,953.7640381
2023-04-27T09:55:26.672Z,953.7780762
2023-04-27T09:56:28.347Z,953.7567749
2023-04-27T09:57:29.765Z,953.7976685
2023-04-27T09:58:31.381Z,953.7323608
2023-04-27T09:59:32.884Z,953.7519531
2023-04-27T10:00:34.325Z,953.7437744
2023-04-27T10:01:37.265Z,953.7451782
2023-04-27T10:02:50.096Z,953.7941895
2023-04-27T10:03:37.873Z,953.7767334
2023-04-27T10:04:39.460Z,953.7584229
2023-04-27T10:06:12.853Z,953.7151489
2023-04-27T10:07:14.302Z,953.7384644
2023-04-27T10:08:15.850Z,953.6682739
2023-04-27T10:09:17.344Z,953.7310791
2023-04-27T10:10:18.996Z,953.6854858
2023-04-27T10:11:20.414Z,953.6387329
2023-04-27T10:12:22.356Z,953.6932983
2023-04-27T10:13:23.854Z,953.6084595
2023-04-27T10:14:25.431Z,953.6035156
2023-04-27T10:15:26.867Z,953.6525269
2023-04-27T10:16:28.395Z,953.6501465
2023-04-27T10:17:29.896Z,953.6298218
2023-04-27T10:18:31.361Z,953.626709
2023-04-27T10:19:32.915Z,953.5558472
2023-04-27T10:20:34.433Z,953.5884399
2023-04-27T10:21:36.297Z,953.5345459
2023-04-27T10:22:37.750Z,953.5853882
2023-04-27T10:23:39.193Z,953.5552368
2023-04-27T10:25:12.423Z,953.5388184
2023-04-27T10:26:13.881Z,953.5717773
2023-04-27T10:27:15.376Z,953.5367432
2023-04-27T10:28:16.912Z,953.4836426
2023-04-27T10:29:18.777Z,953.4741211
2023-04-27T10:30:20.356Z,953.4414063
2023-04-27T10:31:21.883Z,953.4879761
2023-04-27T10:32:23.260Z,953.4891968
2023-04-27T10:33:24.850Z,953.4768677
2023-04-27T10:34:26.275Z,953.4679565
2023-04-27T10:35:27.822Z,953.385498
2023-04-27T10:36:29.330Z,953.3867188
2023-04-27T10:37:30.853Z,953.4128418
2023-04-27T10:38:32.431Z,953.4299316
2023-04-27T10:39:44.093Z,953.392395
2023-04-27T10:40:35.895Z,953.3240356
2023-04-27T10:41:37.394Z,953.3114014
2023-04-27T10:42:38.819Z,953.3198242
2023-04-27T10:43:40.678Z,953.2842407
2023-04-27T10:45:13.862Z,953.3692017
2023-04-27T10:46:15.411Z,953.3613892
2023-04-27T10:47:17.370Z,953.4398193
2023-04-27T10:48:18.715Z,953.4336548
2023-04-27T10:49:20.244Z,953.4181519
2023-04-27T10:50:22.003Z,953.4127197
2023-04-27T10:51:23.922Z,953.3995361
2023-04-27T10:52:25.813Z,953.2918701
2023-04-27T10:53:27.274Z,953.3253784
2023-04-27T10:54:28.791Z,953.3154907
2023-04-27T10:55:30.320Z,953.3165894
2023-04-27T10:56:32.515Z,953.3167114
2023-04-27T10:57:34.356Z,953.2887573
2023-04-27T10:58:48.428Z,953.3250122
2023-04-27T10:59:37.317Z,953.2990112
2023-04-27T11:00:38.940Z,953.331665
2023-04-27T11:01:40.393Z,953.2860718
2023-04-27T11:03:13.244Z,953.2650146
2023-04-27T11:04:15.064Z,953.2487793
2023-04-27T11:05:16.427Z,953.2103271
2023-04-27T11:06:18.385Z,953.2062378
2023-04-27T11:07:19.938Z,953.2064209
2023-04-27T11:08:21.829Z,953.258728
2023-04-27T11:09:23.250Z,953.2341919
2023-04-27T11:10:24.788Z,953.2940063
2023-04-27T11:11:26.433Z,953.2803955
2023-04-27T11:12:28.524Z,953.2687378
2023-04-27T11:13:30.286Z,953.2453613
2023-04-27T11:14:31.688Z,953.1978149
2023-04-27T11:15:33.373Z,953.1676636
2023-04-27T11:16:34.955Z,953.1073608
2023-04-27T11:17:36.836Z,953.2145386
2023-04-27T11:18:38.483Z,953.0894775
2023-04-27T11:20:11.847Z,953.092041
2023-04-27T11:21:13.733Z,953.133728
2023-04-27T11:22:15.396Z,953.0551758
2023-04-27T11:23:16.859Z,953.0568848
2023-04-27T11:24:18.361Z,953.0847168
2023-04-27T11:25:19.857Z,953.0184326
2023-04-27T11:26:21.380Z,953.024231
2023-04-27T11:27:22.866Z,953.0217285